sensor_id;sensor_type;location;lat;lon;timestamp;pressure;altitude;pressure_sealevel;temperature;humidity
30949;BME280;17637;51.984;21.208;2023-06-14T00:00:45;100445.53;;;11.98;82.92
30949;BME280;17637;51.984;21.208;2023-06-14T00:03:17;100442.22;;;11.96;83.36
30949;BME280;17637;51.984;21.208;2023-06-14T00:05:50;100409.63;;;11.79;83.73
30949;BME280;17637;51.984;21.208;2023-06-14T00:08:21;100440.97;;;11.89;83.34
30949;BME280;17637;51.984;21.208;2023-06-14T00:10:54;100428.56;;;11.93;83.61
30949;BME280;17637;51.984;21.208;2023-06-14T00:13:26;100411.63;;;11.87;83.33
30949;BME280;17637;51.984;21.208;2023-06-14T00:15:59;100433.22;;;12.01;83.45
30949;BME280;17637;51.984;21.208;2023-06-14T00:18:30;100439.47;;;11.98;83.42
30949;BME280;17637;51.984;21.208;2023-06-14T00:21:02;100418.59;;;11.87;83.50
30949;BME280;17637;51.984;21.208;2023-06-14T00:23:35;100425.81;;;11.94;83.53
30949;BME280;17637;51.984;21.208;2023-06-14T00:26:07;100417.19;;;11.94;83.49
30949;BME280;17637;51.984;21.208;2023-06-14T00:28:39;100420.06;;;12.02;83.47
30949;BME280;17637;51.984;21.208;2023-06-14T00:31:11;100417.69;;;11.99;83.30
30949;BME280;17637;51.984;21.208;2023-06-14T00:33:43;100381.19;;;11.76;83.22
30949;BME280;17637;51.984;21.208;2023-06-14T00:36:14;100399.47;;;11.99;83.29
30949;BME280;17637;51.984;21.208;2023-06-14T00:38:46;100429.78;;;12.11;83.26
30949;BME280;17637;51.984;21.208;2023-06-14T00:41:18;100420.53;;;12.07;82.61
30949;BME280;17637;51.984;21.208;2023-06-14T00:43:50;100434.03;;;12.12;82.47
30949;BME280;17637;51.984;21.208;2023-06-14T00:46:22;100429.41;;;12.16;82.37
30949;BME280;17637;51.984;21.208;2023-06-14T00:48:56;100425.66;;;12.09;82.37
30949;BME280;17637;51.984;21.208;2023-06-14T00:51:28;100435.09;;;12.10;83.03
30949;BME280;17637;51.984;21.208;2023-06-14T00:54:00;100411.50;;;11.89;82.96
30949;BME280;17637;51.984;21.208;2023-06-14T00:56:32;100413.09;;;12.03;82.50
30949;BME280;17637;51.984;21.208;2023-06-14T00:59:05;100426.13;;;12.03;82.48
30949;BME280;17637;51.984;21.208;2023-06-14T01:01:37;100425.28;;;12.02;82.88
30949;BME280;17637;51.984;21.208;2023-06-14T01:04:10;100408.81;;;12.02;82.44
30949;BME280;17637;51.984;21.208;2023-06-14T01:06:56;100434.16;;;12.11;82.17
30949;BME280;17637;51.984;21.208;2023-06-14T01:12:38;100429.31;;;12.06;82.57
30949;BME280;17637;51.984;21.208;2023-06-14T01:15:11;100409.88;;;11.99;82.73
30949;BME280;17637;51.984;21.208;2023-06-14T01:17:45;100381.47;;;11.85;82.67
30949;BME280;17637;51.984;21.208;2023-06-14T01:20:20;100363.81;;;11.77;82.77
30949;BME280;17637;51.984;21.208;2023-06-14T01:22:53;100387.59;;;11.84;83.09
30949;BME280;17637;51.984;21.208;2023-06-14T01:25:25;100385.59;;;11.76;83.41
30949;BME280;17637;51.984;21.208;2023-06-14T01:28:03;100411.78;;;11.97;83.25
30949;BME280;17637;51.984;21.208;2023-06-14T01:30:44;100410.78;;;11.87;83.71
30949;BME280;17637;51.984;21.208;2023-06-14T01:33:22;100404.44;;;11.91;83.45
30949;BME280;17637;51.984;21.208;2023-06-14T01:35:56;100408.91;;;11.89;83.25
30949;BME280;17637;51.984;21.208;2023-06-14T01:38:28;100371.47;;;11.56;84.63
30949;BME280;17637;51.984;21.208;2023-06-14T01:41:02;100367.00;;;11.58;84.35
30949;BME280;17637;51.984;21.208;2023-06-14T01:43:35;100371.34;;;11.57;83.96
30949;BME280;17637;51.984;21.208;2023-06-14T01:46:08;100401.91;;;11.78;83.74
30949;BME280;17637;51.984;21.208;2023-06-14T01:48:40;100389.13;;;11.63;84.03
30949;BME280;17637;51.984;21.208;2023-06-14T01:51:12;100386.28;;;11.67;83.77
30949;BME280;17637;51.984;21.208;2023-06-14T01:53:44;100382.97;;;11.76;83.31
30949;BME280;17637;51.984;21.208;2023-06-14T01:56:16;100389.47;;;11.70;83.30
30949;BME280;17637;51.984;21.208;2023-06-14T01:58:47;100401.69;;;11.81;83.98
30949;BME280;17637;51.984;21.208;2023-06-14T02:01:20;100389.47;;;11.81;83.34
30949;BME280;17637;51.984;21.208;2023-06-14T02:03:53;100407.25;;;11.88;82.88
30949;BME280;17637;51.984;21.208;2023-06-14T02:06:26;100413.63;;;11.84;82.91
30949;BME280;17637;51.984;21.208;2023-06-14T02:08:58;100377.88;;;11.63;83.20
30949;BME280;17637;51.984;21.208;2023-06-14T02:11:30;100403.69;;;11.77;82.98
30949;BME280;17637;51.984;21.208;2023-06-14T02:14:02;100400.63;;;11.84;82.89
30949;BME280;17637;51.984;21.208;2023-06-14T02:16:34;100410.09;;;11.85;82.79
30949;BME280;17637;51.984;21.208;2023-06-14T02:19:07;100401.69;;;11.81;82.77
30949;BME280;17637;51.984;21.208;2023-06-14T02:21:39;100394.09;;;11.55;83.50
30949;BME280;17637;51.984;21.208;2023-06-14T02:24:11;100405.66;;;11.62;84.16
30949;BME280;17637;51.984;21.208;2023-06-14T02:26:43;100403.81;;;11.76;83.82
30949;BME280;17637;51.984;21.208;2023-06-14T02:29:15;100391.59;;;11.65;83.89
30949;BME280;17637;51.984;21.208;2023-06-14T02:31:47;100399.66;;;11.73;83.76
30949;BME280;17637;51.984;21.208;2023-06-14T02:34:20;100380.84;;;11.70;83.80
30949;BME280;17637;51.984;21.208;2023-06-14T02:36:53;100383.56;;;11.68;83.32
30949;BME280;17637;51.984;21.208;2023-06-14T02:39:25;100396.94;;;11.75;83.43
30949;BME280;17637;51.984;21.208;2023-06-14T02:41:57;100341.31;;;11.53;82.84
30949;BME280;17637;51.984;21.208;2023-06-14T02:44:29;100385.00;;;11.84;82.72
30949;BME280;17637;51.984;21.208;2023-06-14T02:47:01;100384.28;;;11.81;82.65
30949;BME280;17637;51.984;21.208;2023-06-14T02:49:33;100374.81;;;11.80;82.37
30949;BME280;17637;51.984;21.208;2023-06-14T02:52:05;100377.19;;;11.72;82.46
30949;BME280;17637;51.984;21.208;2023-06-14T02:54:37;100393.28;;;11.89;82.60
30949;BME280;17637;51.984;21.208;2023-06-14T02:57:09;100385.13;;;11.82;82.81
30949;BME280;17637;51.984;21.208;2023-06-14T02:59:42;100387.72;;;11.82;82.83
30949;BME280;17637;51.984;21.208;2023-06-14T03:02:14;100365.81;;;11.62;83.33
30949;BME280;17637;51.984;21.208;2023-06-14T03:04:46;100340.63;;;11.51;83.32
30949;BME280;17637;51.984;21.208;2023-06-14T03:07:18;100379.91;;;11.71;83.38
30949;BME280;17637;51.984;21.208;2023-06-14T03:09:52;100384.41;;;11.80;82.65
30949;BME280;17637;51.984;21.208;2023-06-14T03:12:23;100364.28;;;11.59;83.38
30949;BME280;17637;51.984;21.208;2023-06-14T03:14:56;100366.88;;;11.59;82.93
30949;BME280;17637;51.984;21.208;2023-06-14T03:17:28;100356.69;;;11.45;83.10
30949;BME280;17637;51.984;21.208;2023-06-14T03:20:04;100394.09;;;11.78;82.71
30949;BME280;17637;51.984;21.208;2023-06-14T03:22:37;100388.19;;;11.76;82.30
30949;BME280;17637;51.984;21.208;2023-06-14T03:25:09;100377.91;;;11.74;82.75
30949;BME280;17637;51.984;21.208;2023-06-14T03:27:41;100387.13;;;11.78;82.39
30949;BME280;17637;51.984;21.208;2023-06-14T03:30:13;100367.50;;;11.74;81.87
30949;BME280;17637;51.984;21.208;2023-06-14T03:32:45;100373.25;;;11.78;82.26
30949;BME280;17637;51.984;21.208;2023-06-14T03:35:19;100395.00;;;12.01;81.64
30949;BME280;17637;51.984;21.208;2023-06-14T03:37:51;100400.41;;;12.09;81.82
30949;BME280;17637;51.984;21.208;2023-06-14T03:40:23;100366.34;;;12.01;81.12
30949;BME280;17637;51.984;21.208;2023-06-14T03:42:58;100368.44;;;12.07;81.41
30949;BME280;17637;51.984;21.208;2023-06-14T03:45:30;100374.13;;;12.12;81.04
30949;BME280;17637;51.984;21.208;2023-06-14T03:48:02;100394.94;;;12.35;81.03
30949;BME280;17637;51.984;21.208;2023-06-14T03:50:35;100382.28;;;12.30;80.94
30949;BME280;17637;51.984;21.208;2023-06-14T03:53:09;100374.56;;;12.29;80.42
30949;BME280;17637;51.984;21.208;2023-06-14T03:55:41;100396.22;;;12.52;80.68
30949;BME280;17637;51.984;21.208;2023-06-14T03:58:16;100393.88;;;12.38;80.70
30949;BME280;17637;51.984;21.208;2023-06-14T04:00:48;100382.00;;;12.56;80.36
30949;BME280;17637;51.984;21.208;2023-06-14T04:03:20;100399.28;;;12.57;81.69
30949;BME280;17637;51.984;21.208;2023-06-14T04:05:56;100365.94;;;12.40;81.17
30949;BME280;17637;51.984;21.208;2023-06-14T04:08:31;100389.25;;;12.53;80.39
30949;BME280;17637;51.984;21.208;2023-06-14T04:11:03;100386.50;;;12.54;80.17
30949;BME280;17637;51.984;21.208;2023-06-14T04:13:35;100402.44;;;12.72;79.91
30949;BME280;17637;51.984;21.208;2023-06-14T04:16:07;100406.59;;;12.75;80.22
30949;BME280;17637;51.984;21.208;2023-06-14T04:18:39;100398.41;;;12.79;80.26
30949;BME280;17637;51.984;21.208;2023-06-14T04:21:11;100372.25;;;12.70;79.41
30949;BME280;17637;51.984;21.208;2023-06-14T04:23:43;100410.00;;;12.87;79.92
30949;BME280;17637;51.984;21.208;2023-06-14T04:26:15;100404.31;;;12.82;80.04
30949;BME280;17637;51.984;21.208;2023-06-14T04:28:49;100402.88;;;12.89;80.17
30949;BME280;17637;51.984;21.208;2023-06-14T04:31:23;100383.94;;;12.75;79.03
30949;BME280;17637;51.984;21.208;2023-06-14T04:33:58;100394.59;;;12.84;80.27
30949;BME280;17637;51.984;21.208;2023-06-14T04:36:30;100390.56;;;12.91;79.26
30949;BME280;17637;51.984;21.208;2023-06-14T04:39:03;100396.31;;;12.94;79.42
30949;BME280;17637;51.984;21.208;2023-06-14T04:41:35;100369.44;;;12.94;79.45
30949;BME280;17637;51.984;21.208;2023-06-14T04:44:08;100389.53;;;13.03;79.25
30949;BME280;17637;51.984;21.208;2023-06-14T04:46:41;100381.25;;;12.98;79.45
30949;BME280;17637;51.984;21.208;2023-06-14T04:49:19;100387.81;;;12.92;79.91
30949;BME280;17637;51.984;21.208;2023-06-14T04:51:50;100367.72;;;12.83;80.00
30949;BME280;17637;51.984;21.208;2023-06-14T04:54:28;100381.31;;;12.87;79.70
30949;BME280;17637;51.984;21.208;2023-06-14T04:57:04;100396.50;;;12.82;80.51
30949;BME280;17637;51.984;21.208;2023-06-14T04:59:37;100398.06;;;13.05;80.03
30949;BME280;17637;51.984;21.208;2023-06-14T05:02:09;100390.63;;;13.01;79.77
30949;BME280;17637;51.984;21.208;2023-06-14T05:04:41;100388.78;;;13.12;80.18
30949;BME280;17637;51.984;21.208;2023-06-14T05:07:13;100393.44;;;13.09;80.10
30949;BME280;17637;51.984;21.208;2023-06-14T05:09:46;100384.00;;;13.18;80.35
30949;BME280;17637;51.984;21.208;2023-06-14T05:12:17;100405.59;;;13.20;80.10
30949;BME280;17637;51.984;21.208;2023-06-14T05:14:50;100406.03;;;13.25;79.96
30949;BME280;17637;51.984;21.208;2023-06-14T05:17:22;100405.84;;;13.17;80.18
30949;BME280;17637;51.984;21.208;2023-06-14T05:19:54;100405.06;;;13.37;79.77
30949;BME280;17637;51.984;21.208;2023-06-14T05:22:27;100382.38;;;13.17;79.27
30949;BME280;17637;51.984;21.208;2023-06-14T05:24:59;100387.41;;;13.29;78.85
30949;BME280;17637;51.984;21.208;2023-06-14T05:27:31;100402.06;;;13.42;78.62
30949;BME280;17637;51.984;21.208;2023-06-14T05:30:03;100403.84;;;13.62;78.06
30949;BME280;17637;51.984;21.208;2023-06-14T05:32:35;100389.66;;;13.55;77.16
30949;BME280;17637;51.984;21.208;2023-06-14T05:35:07;100395.84;;;13.85;77.04
30949;BME280;17637;51.984;21.208;2023-06-14T05:37:39;100389.69;;;14.27;75.41
30949;BME280;17637;51.984;21.208;2023-06-14T05:40:11;100391.53;;;14.05;76.02
30949;BME280;17637;51.984;21.208;2023-06-14T05:42:44;100379.75;;;14.21;75.96
30949;BME280;17637;51.984;21.208;2023-06-14T05:45:16;100382.38;;;14.21;75.23
30949;BME280;17637;51.984;21.208;2023-06-14T05:47:48;100370.69;;;14.25;75.71
30949;BME280;17637;51.984;21.208;2023-06-14T05:50:20;100379.91;;;14.29;75.25
30949;BME280;17637;51.984;21.208;2023-06-14T05:52:53;100388.25;;;14.13;75.72
30949;BME280;17637;51.984;21.208;2023-06-14T05:55:25;100411.31;;;13.98;75.91
30949;BME280;17637;51.984;21.208;2023-06-14T05:57:57;100407.75;;;13.99;76.35
30949;BME280;17637;51.984;21.208;2023-06-14T06:00:29;100386.41;;;13.94;76.63
30949;BME280;17637;51.984;21.208;2023-06-14T06:03:00;100385.03;;;14.00;76.85
30949;BME280;17637;51.984;21.208;2023-06-14T06:05:32;100399.44;;;14.15;76.48
30949;BME280;17637;51.984;21.208;2023-06-14T06:08:04;100387.22;;;14.35;75.88
30949;BME280;17637;51.984;21.208;2023-06-14T06:10:36;100393.03;;;14.49;75.05
30949;BME280;17637;51.984;21.208;2023-06-14T06:13:08;100399.47;;;14.35;75.10
30949;BME280;17637;51.984;21.208;2023-06-14T06:15:42;100399.56;;;14.74;74.27
30949;BME280;17637;51.984;21.208;2023-06-14T06:18:14;100400.75;;;15.58;72.64
30949;BME280;17637;51.984;21.208;2023-06-14T06:20:46;100381.09;;;15.34;71.53
30949;BME280;17637;51.984;21.208;2023-06-14T06:23:18;100404.88;;;15.70;71.65
30949;BME280;17637;51.984;21.208;2023-06-14T06:25:50;100397.72;;;15.53;71.14
30949;BME280;17637;51.984;21.208;2023-06-14T06:28:22;100382.44;;;15.48;71.53
30949;BME280;17637;51.984;21.208;2023-06-14T06:30:54;100409.16;;;15.52;71.27
30949;BME280;17637;51.984;21.208;2023-06-14T06:33:26;100373.44;;;15.70;70.79
30949;BME280;17637;51.984;21.208;2023-06-14T06:35:58;100409.19;;;15.99;70.01
30949;BME280;17637;51.984;21.208;2023-06-14T06:38:30;100395.88;;;16.20;67.33
30949;BME280;17637;51.984;21.208;2023-06-14T06:41:02;100395.81;;;16.02;68.37
30949;BME280;17637;51.984;21.208;2023-06-14T06:43:33;100404.66;;;16.01;68.23
30949;BME280;17637;51.984;21.208;2023-06-14T06:46:05;100409.97;;;16.10;70.02
30949;BME280;17637;51.984;21.208;2023-06-14T06:48:37;100429.06;;;16.30;68.72
30949;BME280;17637;51.984;21.208;2023-06-14T06:51:09;100432.44;;;16.22;68.21
30949;BME280;17637;51.984;21.208;2023-06-14T06:53:42;100413.50;;;16.28;67.31
30949;BME280;17637;51.984;21.208;2023-06-14T06:56:21;100413.38;;;16.48;66.92
30949;BME280;17637;51.984;21.208;2023-06-14T06:58:54;100400.81;;;16.51;66.62
30949;BME280;17637;51.984;21.208;2023-06-14T07:01:26;100428.72;;;16.70;67.54
30949;BME280;17637;51.984;21.208;2023-06-14T07:04:00;100432.31;;;16.69;65.76
30949;BME280;17637;51.984;21.208;2023-06-14T07:06:33;100419.09;;;16.61;66.66
30949;BME280;17637;51.984;21.208;2023-06-14T07:09:05;100429.78;;;16.96;66.27
30949;BME280;17637;51.984;21.208;2023-06-14T07:11:40;100426.72;;;17.00;65.75
30949;BME280;17637;51.984;21.208;2023-06-14T07:14:12;100425.88;;;16.82;64.88
30949;BME280;17637;51.984;21.208;2023-06-14T07:16:43;100409.09;;;17.55;63.12
30949;BME280;17637;51.984;21.208;2023-06-14T07:19:16;100425.75;;;17.64;62.74
30949;BME280;17637;51.984;21.208;2023-06-14T07:21:48;100443.41;;;18.06;61.62
30949;BME280;17637;51.984;21.208;2023-06-14T07:24:20;100423.88;;;18.09;62.77
30949;BME280;17637;51.984;21.208;2023-06-14T07:26:53;100380.84;;;17.31;62.54
30949;BME280;17637;51.984;21.208;2023-06-14T07:29:25;100445.66;;;17.75;62.99
30949;BME280;17637;51.984;21.208;2023-06-14T07:31:58;100446.47;;;17.75;60.91
30949;BME280;17637;51.984;21.208;2023-06-14T07:34:30;100435.63;;;17.44;60.74
30949;BME280;17637;51.984;21.208;2023-06-14T07:37:02;100446.31;;;17.24;63.78
30949;BME280;17637;51.984;21.208;2023-06-14T07:39:33;100427.31;;;16.94;63.43
30949;BME280;17637;51.984;21.208;2023-06-14T07:42:06;100439.59;;;17.30;62.71
30949;BME280;17637;51.984;21.208;2023-06-14T07:44:39;100439.25;;;17.69;62.51
30949;BME280;17637;51.984;21.208;2023-06-14T07:47:10;100445.94;;;17.90;64.32
30949;BME280;17637;51.984;21.208;2023-06-14T07:49:42;100448.53;;;18.16;62.28
30949;BME280;17637;51.984;21.208;2023-06-14T07:52:14;100436.16;;;18.43;60.93
30949;BME280;17637;51.984;21.208;2023-06-14T07:54:46;100422.00;;;18.01;58.95
30949;BME280;17637;51.984;21.208;2023-06-14T07:57:18;100413.13;;;17.94;59.96
30949;BME280;17637;51.984;21.208;2023-06-14T07:59:52;100437.72;;;17.93;60.91
30949;BME280;17637;51.984;21.208;2023-06-14T08:02:24;100437.66;;;18.02;61.02
30949;BME280;17637;51.984;21.208;2023-06-14T08:04:56;100433.22;;;17.77;61.47
30949;BME280;17637;51.984;21.208;2023-06-14T08:07:28;100424.56;;;17.93;62.79
30949;BME280;17637;51.984;21.208;2023-06-14T08:09:59;100423.09;;;17.19;64.08
30949;BME280;17637;51.984;21.208;2023-06-14T08:12:33;100444.34;;;17.70;63.86
30949;BME280;17637;51.984;21.208;2023-06-14T08:15:05;100434.34;;;18.00;63.22
30949;BME280;17637;51.984;21.208;2023-06-14T08:17:45;100422.56;;;18.13;63.68
30949;BME280;17637;51.984;21.208;2023-06-14T08:20:17;100422.22;;;17.55;64.30
30949;BME280;17637;51.984;21.208;2023-06-14T08:22:48;100439.81;;;17.89;64.52
30949;BME280;17637;51.984;21.208;2023-06-14T08:25:21;100440.81;;;17.88;64.49
30949;BME280;17637;51.984;21.208;2023-06-14T08:27:53;100433.91;;;18.13;63.78
30949;BME280;17637;51.984;21.208;2023-06-14T08:30:25;100410.84;;;17.99;62.32
30949;BME280;17637;51.984;21.208;2023-06-14T08:32:57;100407.53;;;18.40;62.44
30949;BME280;17637;51.984;21.208;2023-06-14T08:35:45;100418.88;;;18.32;63.60
30949;BME280;17637;51.984;21.208;2023-06-14T08:38:17;100420.94;;;18.88;60.34
30949;BME280;17637;51.984;21.208;2023-06-14T08:40:51;100417.81;;;18.84;59.69
30949;BME280;17637;51.984;21.208;2023-06-14T08:43:24;100410.31;;;18.97;58.88
30949;BME280;17637;51.984;21.208;2023-06-14T08:46:00;100411.63;;;19.18;56.01
30949;BME280;17637;51.984;21.208;2023-06-14T08:48:34;100432.34;;;19.54;56.93
30949;BME280;17637;51.984;21.208;2023-06-14T08:51:07;100420.66;;;19.40;54.56
30949;BME280;17637;51.984;21.208;2023-06-14T08:53:40;100401.69;;;19.53;54.17
30949;BME280;17637;51.984;21.208;2023-06-14T08:56:13;100417.53;;;19.45;54.73
30949;BME280;17637;51.984;21.208;2023-06-14T08:58:46;100375.88;;;19.24;50.84
30949;BME280;17637;51.984;21.208;2023-06-14T09:01:20;100419.16;;;19.54;53.09
30949;BME280;17637;51.984;21.208;2023-06-14T09:03:53;100418.59;;;19.75;53.50
30949;BME280;17637;51.984;21.208;2023-06-14T09:06:26;100416.81;;;19.84;54.25
30949;BME280;17637;51.984;21.208;2023-06-14T09:08:59;100422.28;;;20.54;53.59
30949;BME280;17637;51.984;21.208;2023-06-14T09:11:31;100419.06;;;19.95;54.22
30949;BME280;17637;51.984;21.208;2023-06-14T09:14:03;100399.06;;;19.53;55.36
30949;BME280;17637;51.984;21.208;2023-06-14T09:16:35;100407.16;;;19.35;52.00
30949;BME280;17637;51.984;21.208;2023-06-14T09:19:08;100403.72;;;19.18;52.83
30949;BME280;17637;51.984;21.208;2023-06-14T09:21:40;100418.59;;;19.92;51.29
30949;BME280;17637;51.984;21.208;2023-06-14T09:24:13;100427.97;;;20.03;52.37
30949;BME280;17637;51.984;21.208;2023-06-14T09:26:50;100426.50;;;19.92;51.75
30949;BME280;17637;51.984;21.208;2023-06-14T09:29:22;100405.28;;;19.77;53.76
30949;BME280;17637;51.984;21.208;2023-06-14T09:31:54;100401.72;;;19.45;53.42
30949;BME280;17637;51.984;21.208;2023-06-14T09:34:26;100413.56;;;19.49;54.52
30949;BME280;17637;51.984;21.208;2023-06-14T09:36:57;100387.88;;;18.85;54.42
30949;BME280;17637;51.984;21.208;2023-06-14T09:39:29;100407.16;;;19.35;53.58
30949;BME280;17637;51.984;21.208;2023-06-14T09:42:16;100406.19;;;20.00;51.77
30949;BME280;17637;51.984;21.208;2023-06-14T09:44:49;100405.63;;;19.82;51.78
30949;BME280;17637;51.984;21.208;2023-06-14T09:47:22;100412.84;;;19.80;54.41
30949;BME280;17637;51.984;21.208;2023-06-14T09:49:55;100386.31;;;19.90;53.37
30949;BME280;17637;51.984;21.208;2023-06-14T09:52:27;100397.38;;;19.77;52.99
30949;BME280;17637;51.984;21.208;2023-06-14T09:55:00;100394.78;;;19.35;51.86
30949;BME280;17637;51.984;21.208;2023-06-14T09:57:32;100409.41;;;19.55;53.53
30949;BME280;17637;51.984;21.208;2023-06-14T10:00:07;100387.25;;;19.41;53.96
30949;BME280;17637;51.984;21.208;2023-06-14T10:02:45;100406.34;;;19.26;52.25
30949;BME280;17637;51.984;21.208;2023-06-14T10:05:23;100414.16;;;19.67;50.96
30949;BME280;17637;51.984;21.208;2023-06-14T10:08:08;100409.59;;;19.61;50.26
30949;BME280;17637;51.984;21.208;2023-06-14T10:10:40;100413.72;;;19.56;50.28
30949;BME280;17637;51.984;21.208;2023-06-14T10:13:12;100399.28;;;19.27;51.92
30949;BME280;17637;51.984;21.208;2023-06-14T10:16:07;100414.56;;;19.40;51.41
30949;BME280;17637;51.984;21.208;2023-06-14T10:19:17;100411.03;;;19.80;49.71
30949;BME280;17637;51.984;21.208;2023-06-14T10:22:05;100414.34;;;19.82;50.10
30949;BME280;17637;51.984;21.208;2023-06-14T10:24:42;100403.84;;;20.14;51.41
30949;BME280;17637;51.984;21.208;2023-06-14T10:27:15;100396.19;;;19.96;48.89
30949;BME280;17637;51.984;21.208;2023-06-14T10:32:25;100388.44;;;19.78;51.20
30949;BME280;17637;51.984;21.208;2023-06-14T10:35:08;100388.03;;;19.49;50.10
30949;BME280;17637;51.984;21.208;2023-06-14T10:37:40;100380.94;;;19.58;50.44
30949;BME280;17637;51.984;21.208;2023-06-14T10:40:30;100391.16;;;19.53;52.21
30949;BME280;17637;51.984;21.208;2023-06-14T10:43:21;100387.78;;;19.84;49.70
30949;BME280;17637;51.984;21.208;2023-06-14T10:48:45;100375.03;;;19.56;50.24
30949;BME280;17637;51.984;21.208;2023-06-14T10:51:20;100387.13;;;19.74;50.50
30949;BME280;17637;51.984;21.208;2023-06-14T10:53:56;100395.91;;;19.66;49.94
30949;BME280;17637;51.984;21.208;2023-06-14T10:56:30;100393.44;;;19.64;50.21
30949;BME280;17637;51.984;21.208;2023-06-14T10:59:02;100356.75;;;19.46;50.36
30949;BME280;17637;51.984;21.208;2023-06-14T11:01:53;100389.16;;;19.72;50.36
30949;BME280;17637;51.984;21.208;2023-06-14T11:04:47;100394.59;;;19.62;51.49
30949;BME280;17637;51.984;21.208;2023-06-14T11:07:35;100392.63;;;19.56;52.39
30949;BME280;17637;51.984;21.208;2023-06-14T11:10:36;100393.81;;;19.45;51.02
30949;BME280;17637;51.984;21.208;2023-06-14T11:13:11;100387.84;;;19.59;51.13
30949;BME280;17637;51.984;21.208;2023-06-14T11:15:45;100394.41;;;19.88;49.84
30949;BME280;17637;51.984;21.208;2023-06-14T11:18:18;100390.28;;;19.86;47.79
30949;BME280;17637;51.984;21.208;2023-06-14T11:20:50;100395.38;;;19.87;46.70
30949;BME280;17637;51.984;21.208;2023-06-14T11:23:22;100377.56;;;19.89;47.35
30949;BME280;17637;51.984;21.208;2023-06-14T11:25:57;100369.72;;;20.12;44.29
30949;BME280;17637;51.984;21.208;2023-06-14T11:28:37;100383.13;;;20.34;45.41
30949;BME280;17637;51.984;21.208;2023-06-14T11:31:09;100396.75;;;20.77;45.15
30949;BME280;17637;51.984;21.208;2023-06-14T11:33:41;100386.44;;;20.59;45.82
30949;BME280;17637;51.984;21.208;2023-06-14T11:36:14;100378.28;;;20.14;45.36
30949;BME280;17637;51.984;21.208;2023-06-14T11:38:47;100383.66;;;20.29;46.78
30949;BME280;17637;51.984;21.208;2023-06-14T11:41:18;100356.63;;;20.27;45.82
30949;BME280;17637;51.984;21.208;2023-06-14T11:43:52;100366.38;;;20.19;46.27
30949;BME280;17637;51.984;21.208;2023-06-14T11:46:25;100363.75;;;20.19;47.34
30949;BME280;17637;51.984;21.208;2023-06-14T11:48:57;100378.41;;;20.21;46.77
30949;BME280;17637;51.984;21.208;2023-06-14T11:51:33;100383.06;;;19.63;46.88
30949;BME280;17637;51.984;21.208;2023-06-14T11:54:06;100358.56;;;20.02;45.38
30949;BME280;17637;51.984;21.208;2023-06-14T11:56:39;100372.75;;;20.01;46.31
30949;BME280;17637;51.984;21.208;2023-06-14T11:59:13;100389.25;;;20.35;46.16
30949;BME280;17637;51.984;21.208;2023-06-14T12:01:45;100380.41;;;20.19;45.74
30949;BME280;17637;51.984;21.208;2023-06-14T12:04:24;100380.97;;;20.06;45.87
30949;BME280;17637;51.984;21.208;2023-06-14T12:06:56;100373.50;;;20.10;46.99
30949;BME280;17637;51.984;21.208;2023-06-14T12:09:29;100380.56;;;20.17;46.23
30949;BME280;17637;51.984;21.208;2023-06-14T12:12:00;100364.06;;;19.84;46.69
30949;BME280;17637;51.984;21.208;2023-06-14T12:14:35;100360.38;;;20.02;46.82
30949;BME280;17637;51.984;21.208;2023-06-14T12:17:07;100365.09;;;19.83;45.58
30949;BME280;17637;51.984;21.208;2023-06-14T12:19:43;100346.91;;;19.80;46.71
30949;BME280;17637;51.984;21.208;2023-06-14T12:22:16;100368.91;;;20.12;47.30
30949;BME280;17637;51.984;21.208;2023-06-14T12:24:48;100355.66;;;20.20;47.60
30949;BME280;17637;51.984;21.208;2023-06-14T12:27:21;100333.13;;;20.41;45.44
30949;BME280;17637;51.984;21.208;2023-06-14T12:29:59;100363.97;;;20.72;44.58
30949;BME280;17637;51.984;21.208;2023-06-14T12:32:31;100371.88;;;20.63;45.94
30949;BME280;17637;51.984;21.208;2023-06-14T12:35:04;100350.25;;;20.45;47.35
30949;BME280;17637;51.984;21.208;2023-06-14T12:37:35;100359.47;;;20.49;46.79
30949;BME280;17637;51.984;21.208;2023-06-14T12:40:08;100360.06;;;19.96;46.84
30949;BME280;17637;51.984;21.208;2023-06-14T12:42:41;100357.34;;;20.13;47.29
30949;BME280;17637;51.984;21.208;2023-06-14T12:45:13;100338.56;;;20.39;44.83
30949;BME280;17637;51.984;21.208;2023-06-14T12:47:45;100333.44;;;19.83;44.63
30949;BME280;17637;51.984;21.208;2023-06-14T12:50:17;100331.28;;;20.18;44.62
30949;BME280;17637;51.984;21.208;2023-06-14T12:52:49;100355.88;;;20.10;43.89
30949;BME280;17637;51.984;21.208;2023-06-14T12:55:21;100329.97;;;19.82;46.04
30949;BME280;17637;51.984;21.208;2023-06-14T12:57:53;100340.53;;;20.14;43.93
30949;BME280;17637;51.984;21.208;2023-06-14T13:00:25;100349.72;;;19.78;45.70
30949;BME280;17637;51.984;21.208;2023-06-14T13:03:01;100345.91;;;19.89;46.43
30949;BME280;17637;51.984;21.208;2023-06-14T13:05:33;100351.09;;;20.14;44.78
30949;BME280;17637;51.984;21.208;2023-06-14T13:08:07;100349.09;;;20.16;45.86
30949;BME280;17637;51.984;21.208;2023-06-14T13:10:40;100317.97;;;19.72;43.07
30949;BME280;17637;51.984;21.208;2023-06-14T13:13:11;100312.50;;;19.17;43.32
30949;BME280;17637;51.984;21.208;2023-06-14T13:15:45;100347.38;;;19.44;45.32
30949;BME280;17637;51.984;21.208;2023-06-14T13:18:18;100336.84;;;19.27;44.83
30949;BME280;17637;51.984;21.208;2023-06-14T13:20:50;100323.59;;;19.60;45.44